sensor_id;sensor_type;location;lat;lon;timestamp;pressure;altitude;pressure_sealevel;temperature;humidity
64192;BME280;50497;50.720;-2.084;2023-05-08T00:00:36;102771.34;;;11.00;100.00
64192;BME280;50497;50.720;-2.084;2023-05-08T00:03:03;102774.88;;;11.02;100.00
64192;BME280;50497;50.720;-2.084;2023-05-08T00:05:29;102775.06;;;10.93;100.00
64192;BME280;50497;50.720;-2.084;2023-05-08T00:07:55;102767.94;;;10.90;100.00
64192;BME280;50497;50.720;-2.084;2023-05-08T00:10:26;102767.09;;;10.86;100.00
64192;BME280;50497;50.720;-2.084;2023-05-08T00:12:52;102760.84;;;10.87;100.00
64192;BME280;50497;50.720;-2.084;2023-05-08T00:15:18;102767.97;;;10.88;100.00
64192;BME280;50497;50.720;-2.084;2023-05-08T00:17:44;102764.38;;;10.89;100.00
64192;BME280;50497;50.720;-2.084;2023-05-08T00:20:10;102748.47;;;10.80;100.00
64192;BME280;50497;50.720;-2.084;2023-05-08T00:22:36;102775.91;;;10.95;100.00
64192;BME280;50497;50.720;-2.084;2023-05-08T00:25:02;102760.03;;;10.82;100.00
64192;BME280;50497;50.720;-2.084;2023-05-08T00:27:32;102783.03;;;10.96;100.00
64192;BME280;50497;50.720;-2.084;2023-05-08T00:29:58;102789.31;;;10.93;100.00
64192;BME280;50497;50.720;-2.084;2023-05-08T00:32:23;102784.19;;;10.79;100.00
64192;BME280;50497;50.720;-2.084;2023-05-08T00:34:49;102789.44;;;10.84;100.00
64192;BME280;50497;50.720;-2.084;2023-05-08T00:37:15;102786.00;;;10.76;100.00
64192;BME280;50497;50.720;-2.084;2023-05-08T00:39:41;102794.94;;;10.76;100.00
64192;BME280;50497;50.720;-2.084;2023-05-08T00:42:06;102804.72;;;10.77;100.00
64192;BME280;50497;50.720;-2.084;2023-05-08T00:44:32;102806.50;;;10.78;100.00
64192;BME280;50497;50.720;-2.084;2023-05-08T00:46:58;102815.41;;;10.80;100.00
64192;BME280;50497;50.720;-2.084;2023-05-08T00:49:24;102808.28;;;10.79;100.00
64192;BME280;50497;50.720;-2.084;2023-05-08T00:51:52;102827.03;;;10.79;100.00
64192;BME280;50497;50.720;-2.084;2023-05-08T00:54:19;102823.56;;;10.72;100.00
64192;BME280;50497;50.720;-2.084;2023-05-08T00:56:45;102830.72;;;10.69;100.00
64192;BME280;50497;50.720;-2.084;2023-05-08T00:59:13;102836.16;;;10.66;100.00
64192;BME280;50497;50.720;-2.084;2023-05-08T01:01:39;102828.19;;;10.60;100.00
64192;BME280;50497;50.720;-2.084;2023-05-08T01:04:05;102832.75;;;10.54;100.00
64192;BME280;50497;50.720;-2.084;2023-05-08T01:06:31;102812.47;;;10.35;100.00
64192;BME280;50497;50.720;-2.084;2023-05-08T01:08:58;102840.88;;;10.45;100.00
64192;BME280;50497;50.720;-2.084;2023-05-08T01:14:31;102822.38;;;10.24;100.00
64192;BME280;50497;50.720;-2.084;2023-05-08T01:31:04;102880.34;;;10.25;100.00
64192;BME280;50497;50.720;-2.084;2023-05-08T01:37:03;102870.66;;;10.14;100.00
64192;BME280;50497;50.720;-2.084;2023-05-08T01:39:33;102909.69;;;10.35;100.00
64192;BME280;50497;50.720;-2.084;2023-05-08T01:44:58;102916.69;;;10.46;100.00
64192;BME280;50497;50.720;-2.084;2023-05-08T01:47:28;102937.13;;;10.54;100.00
64192;BME280;50497;50.720;-2.084;2023-05-08T01:50:13;102914.97;;;10.40;100.00
64192;BME280;50497;50.720;-2.084;2023-05-08T01:55:13;102941.56;;;10.54;100.00
64192;BME280;50497;50.720;-2.084;2023-05-08T01:57:45;102937.16;;;10.50;100.00
64192;BME280;50497;50.720;-2.084;2023-05-08T02:00:14;102952.25;;;10.56;100.00
64192;BME280;50497;50.720;-2.084;2023-05-08T02:02:42;102961.13;;;10.61;100.00
64192;BME280;50497;50.720;-2.084;2023-05-08T02:05:09;102963.75;;;10.64;100.00
64192;BME280;50497;50.720;-2.084;2023-05-08T02:07:38;102970.88;;;10.68;100.00
64192;BME280;50497;50.720;-2.084;2023-05-08T02:10:05;102983.34;;;10.69;100.00
64192;BME280;50497;50.720;-2.084;2023-05-08T02:12:33;102982.34;;;10.78;100.00
64192;BME280;50497;50.720;-2.084;2023-05-08T02:15:00;102981.53;;;10.72;100.00
64192;BME280;50497;50.720;-2.084;2023-05-08T02:17:27;102991.28;;;10.78;100.00
64192;BME280;50497;50.720;-2.084;2023-05-08T02:19:57;102991.31;;;10.75;100.00
64192;BME280;50497;50.720;-2.084;2023-05-08T02:22:24;102998.53;;;10.67;100.00
64192;BME280;50497;50.720;-2.084;2023-05-08T02:24:52;103005.66;;;10.71;100.00
64192;BME280;50497;50.720;-2.084;2023-05-08T02:27:25;103003.88;;;10.70;100.00
64192;BME280;50497;50.720;-2.084;2023-05-08T02:29:53;103011.84;;;10.73;100.00
64192;BME280;50497;50.720;-2.084;2023-05-08T02:32:20;103015.53;;;10.66;100.00
64192;BME280;50497;50.720;-2.084;2023-05-08T02:34:49;103020.81;;;10.69;100.00
64192;BME280;50497;50.720;-2.084;2023-05-08T02:37:18;103017.28;;;10.67;100.00
64192;BME280;50497;50.720;-2.084;2023-05-08T02:39:45;103025.28;;;10.70;100.00
64192;BME280;50497;50.720;-2.084;2023-05-08T02:42:11;103031.47;;;10.75;100.00
64192;BME280;50497;50.720;-2.084;2023-05-08T02:44:37;103018.13;;;10.69;100.00
64192;BME280;50497;50.720;-2.084;2023-05-08T02:47:20;103045.56;;;10.93;100.00
64192;BME280;50497;50.720;-2.084;2023-05-08T02:53:10;103048.16;;;10.97;100.00
64192;BME280;50497;50.720;-2.084;2023-05-08T02:55:38;103061.47;;;11.05;100.00
64192;BME280;50497;50.720;-2.084;2023-05-08T02:58:28;103056.03;;;11.11;100.00
64192;BME280;50497;50.720;-2.084;2023-05-08T03:00:59;103071.09;;;11.21;100.00
64192;BME280;50497;50.720;-2.084;2023-05-08T03:03:39;103037.34;;;11.05;100.00
64192;BME280;50497;50.720;-2.084;2023-05-08T03:06:10;103041.75;;;11.10;100.00
64192;BME280;50497;50.720;-2.084;2023-05-08T03:08:38;103063.91;;;11.23;100.00
64192;BME280;50497;50.720;-2.084;2023-05-08T03:11:17;103076.38;;;11.27;100.00
64192;BME280;50497;50.720;-2.084;2023-05-08T03:13:45;103070.91;;;11.35;100.00
64192;BME280;50497;50.720;-2.084;2023-05-08T03:16:17;103064.66;;;11.35;100.00
64192;BME280;50497;50.720;-2.084;2023-05-08T03:19:21;103065.53;;;11.37;100.00
64192;BME280;50497;50.720;-2.084;2023-05-08T03:21:52;103061.06;;;11.39;100.00
64192;BME280;50497;50.720;-2.084;2023-05-08T03:24:20;103064.66;;;11.36;100.00
64192;BME280;50497;50.720;-2.084;2023-05-08T03:26:50;103063.72;;;11.39;100.00
64192;BME280;50497;50.720;-2.084;2023-05-08T03:29:16;103054.75;;;11.41;100.00
64192;BME280;50497;50.720;-2.084;2023-05-08T03:31:43;103062.66;;;11.52;100.00
64192;BME280;50497;50.720;-2.084;2023-05-08T03:34:11;103059.13;;;11.47;100.00
64192;BME280;50497;50.720;-2.084;2023-05-08T03:36:38;103046.59;;;11.49;100.00
64192;BME280;50497;50.720;-2.084;2023-05-08T03:39:04;103048.31;;;11.53;100.00
64192;BME280;50497;50.720;-2.084;2023-05-08T03:41:30;103050.94;;;11.58;100.00
64192;BME280;50497;50.720;-2.084;2023-05-08T03:43:56;103040.25;;;11.56;100.00
64192;BME280;50497;50.720;-2.084;2023-05-08T03:46:22;103036.69;;;11.54;100.00
64192;BME280;50497;50.720;-2.084;2023-05-08T03:48:50;103038.53;;;11.51;100.00
64192;BME280;50497;50.720;-2.084;2023-05-08T03:51:17;103033.28;;;11.43;100.00
64192;BME280;50497;50.720;-2.084;2023-05-08T03:53:43;103029.72;;;11.44;100.00
64192;BME280;50497;50.720;-2.084;2023-05-08T03:56:08;103029.72;;;11.44;100.00
64192;BME280;50497;50.720;-2.084;2023-05-08T03:58:47;103031.44;;;11.46;100.00
64192;BME280;50497;50.720;-2.084;2023-05-08T04:01:31;103002.25;;;11.26;100.00
64192;BME280;50497;50.720;-2.084;2023-05-08T04:04:11;103038.56;;;11.49;100.00
64192;BME280;50497;50.720;-2.084;2023-05-08T04:07:05;103021.59;;;11.47;100.00
64192;BME280;50497;50.720;-2.084;2023-05-08T04:09:47;103025.16;;;11.49;100.00
64192;BME280;50497;50.720;-2.084;2023-05-08T04:12:30;103030.41;;;11.55;100.00
64192;BME280;50497;50.720;-2.084;2023-05-08T04:15:05;103034.97;;;11.49;100.00
64192;BME280;50497;50.720;-2.084;2023-05-08T04:17:56;103027.81;;;11.51;100.00
64192;BME280;50497;50.720;-2.084;2023-05-08T04:20:25;103030.41;;;11.55;100.00
64192;BME280;50497;50.720;-2.084;2023-05-08T04:22:52;103033.25;;;11.44;100.00
64192;BME280;50497;50.720;-2.084;2023-05-08T04:25:19;103025.31;;;11.37;100.00
64192;BME280;50497;50.720;-2.084;2023-05-08T04:27:46;103042.94;;;11.55;100.00
64192;BME280;50497;50.720;-2.084;2023-05-08T04:30:13;103035.88;;;11.49;100.00
64192;BME280;50497;50.720;-2.084;2023-05-08T04:32:39;103032.41;;;11.42;100.00
64192;BME280;50497;50.720;-2.084;2023-05-08T04:35:06;103030.56;;;11.46;100.00
64192;BME280;50497;50.720;-2.084;2023-05-08T04:37:32;103031.38;;;11.51;100.00
64192;BME280;50497;50.720;-2.084;2023-05-08T04:39:58;103026.06;;;11.48;100.00
64192;BME280;50497;50.720;-2.084;2023-05-08T04:42:24;103000.44;;;11.27;100.00
64192;BME280;50497;50.720;-2.084;2023-05-08T04:44:51;103019.75;;;11.52;100.00
64192;BME280;50497;50.720;-2.084;2023-05-08T04:47:17;103010.88;;;11.47;100.00
64192;BME280;50497;50.720;-2.084;2023-05-08T04:49:42;103011.81;;;11.44;100.00
64192;BME280;50497;50.720;-2.084;2023-05-08T04:52:08;103002.88;;;11.45;100.00
64192;BME280;50497;50.720;-2.084;2023-05-08T04:54:33;103009.94;;;11.50;100.00
64192;BME280;50497;50.720;-2.084;2023-05-08T04:56:59;103009.88;;;11.56;100.00
64192;BME280;50497;50.720;-2.084;2023-05-08T04:59:25;103010.69;;;11.59;100.00
64192;BME280;50497;50.720;-2.084;2023-05-08T05:01:51;102987.72;;;11.43;100.00
64192;BME280;50497;50.720;-2.084;2023-05-08T05:04:16;103008.88;;;11.61;100.00
64192;BME280;50497;50.720;-2.084;2023-05-08T05:06:42;102979.59;;;11.49;100.00
64192;BME280;50497;50.720;-2.084;2023-05-08T05:09:07;102990.22;;;11.54;100.00
64192;BME280;50497;50.720;-2.084;2023-05-08T05:11:33;102975.97;;;11.52;100.00
64192;BME280;50497;50.720;-2.084;2023-05-08T05:13:59;102964.38;;;11.50;100.00
64192;BME280;50497;50.720;-2.084;2023-05-08T05:16:25;102959.81;;;11.55;100.00
64192;BME280;50497;50.720;-2.084;2023-05-08T05:18:52;102948.13;;;11.60;100.00
64192;BME280;50497;50.720;-2.084;2023-05-08T05:21:17;102895.91;;;11.28;100.00
64192;BME280;50497;50.720;-2.084;2023-05-08T05:23:43;102914.22;;;11.58;100.00
64192;BME280;50497;50.720;-2.084;2023-05-08T05:26:09;102886.66;;;11.48;100.00
64192;BME280;50497;50.720;-2.084;2023-05-08T05:28:34;102855.56;;;11.38;100.00
64192;BME280;50497;50.720;-2.084;2023-05-08T05:31:00;102864.16;;;11.57;100.00
64192;BME280;50497;50.720;-2.084;2023-05-08T05:33:25;102870.97;;;11.76;100.00
64192;BME280;50497;50.720;-2.084;2023-05-08T05:35:51;102868.25;;;11.79;100.00
64192;BME280;50497;50.720;-2.084;2023-05-08T05:38:17;102846.06;;;11.70;100.00
64192;BME280;50497;50.720;-2.084;2023-05-08T05:40:42;102828.78;;;11.86;100.00
64192;BME280;50497;50.720;-2.084;2023-05-08T05:43:08;102796.78;;;11.75;100.00
64192;BME280;50497;50.720;-2.084;2023-05-08T05:45:33;102786.91;;;11.79;100.00
64192;BME280;50497;50.720;-2.084;2023-05-08T05:48:00;102737.19;;;11.62;100.00
64192;BME280;50497;50.720;-2.084;2023-05-08T05:50:26;102746.34;;;11.96;100.00
64192;BME280;50497;50.720;-2.084;2023-05-08T05:52:53;102733.91;;;11.90;100.00
64192;BME280;50497;50.720;-2.084;2023-05-08T05:55:18;102704.50;;;11.87;100.00
64192;BME280;50497;50.720;-2.084;2023-05-08T05:57:44;102659.09;;;11.78;100.00
64192;BME280;50497;50.720;-2.084;2023-05-08T06:00:10;102682.09;;;11.88;100.00
64192;BME280;50497;50.720;-2.084;2023-05-08T06:02:36;102660.47;;;11.97;100.00
64192;BME280;50497;50.720;-2.084;2023-05-08T06:05:02;102648.69;;;12.05;100.00
64192;BME280;50497;50.720;-2.084;2023-05-08T06:07:28;102635.34;;;12.01;100.00
64192;BME280;50497;50.720;-2.084;2023-05-08T06:09:53;102635.19;;;12.08;100.00
64192;BME280;50497;50.720;-2.084;2023-05-08T06:12:20;102616.72;;;11.95;100.00
64192;BME280;50497;50.720;-2.084;2023-05-08T06:14:46;102593.75;;;11.82;100.00
64192;BME280;50497;50.720;-2.084;2023-05-08T06:17:15;102607.66;;;11.99;100.00
64192;BME280;50497;50.720;-2.084;2023-05-08T06:19:46;102592.81;;;11.83;100.00
64192;BME280;50497;50.720;-2.084;2023-05-08T06:22:18;102603.38;;;11.91;100.00
64192;BME280;50497;50.720;-2.084;2023-05-08T06:24:43;102574.19;;;11.77;100.00
64192;BME280;50497;50.720;-2.084;2023-05-08T06:27:10;102607.59;;;12.02;100.00
64192;BME280;50497;50.720;-2.084;2023-05-08T06:29:36;102604.97;;;12.01;100.00
64192;BME280;50497;50.720;-2.084;2023-05-08T06:32:02;102625.41;;;12.05;100.00
64192;BME280;50497;50.720;-2.084;2023-05-08T06:34:30;102633.69;;;11.96;100.00
64192;BME280;50497;50.720;-2.084;2023-05-08T06:37:00;102649.06;;;11.86;100.00
64192;BME280;50497;50.720;-2.084;2023-05-08T06:39:25;102646.81;;;11.68;100.00
64192;BME280;50497;50.720;-2.084;2023-05-08T06:41:51;102705.16;;;11.98;100.00
64192;BME280;50497;50.720;-2.084;2023-05-08T06:44:16;102714.91;;;12.02;100.00
64192;BME280;50497;50.720;-2.084;2023-05-08T06:46:42;102726.75;;;11.94;100.00
64192;BME280;50497;50.720;-2.084;2023-05-08T06:49:08;102748.78;;;12.07;100.00
64192;BME280;50497;50.720;-2.084;2023-05-08T06:51:34;102760.44;;;12.07;100.00
64192;BME280;50497;50.720;-2.084;2023-05-08T06:54:04;102774.72;;;12.08;100.00
64192;BME280;50497;50.720;-2.084;2023-05-08T06:56:36;102792.69;;;12.04;100.00
64192;BME280;50497;50.720;-2.084;2023-05-08T06:59:04;102801.63;;;12.03;100.00
64192;BME280;50497;50.720;-2.084;2023-05-08T07:01:33;102827.53;;;12.06;100.00
64192;BME280;50497;50.720;-2.084;2023-05-08T07:03:59;102816.25;;;11.85;100.00
64192;BME280;50497;50.720;-2.084;2023-05-08T07:06:25;102864.31;;;12.00;100.00
64192;BME280;50497;50.720;-2.084;2023-05-08T07:08:51;102878.59;;;12.01;100.00
64192;BME280;50497;50.720;-2.084;2023-05-08T07:11:21;102882.22;;;11.98;100.00
64192;BME280;50497;50.720;-2.084;2023-05-08T07:13:53;102889.34;;;12.01;100.00
64192;BME280;50497;50.720;-2.084;2023-05-08T07:16:20;102901.75;;;12.05;100.00
64192;BME280;50497;50.720;-2.084;2023-05-08T07:18:50;102904.59;;;11.97;100.00
64192;BME280;50497;50.720;-2.084;2023-05-08T07:21:15;102912.72;;;11.94;100.00
64192;BME280;50497;50.720;-2.084;2023-05-08T07:23:43;102922.28;;;12.08;100.00
64192;BME280;50497;50.720;-2.084;2023-05-08T07:26:12;102926.16;;;11.91;100.00
64192;BME280;50497;50.720;-2.084;2023-05-08T07:28:43;102937.50;;;12.09;100.00
64192;BME280;50497;50.720;-2.084;2023-05-08T07:31:13;102936.88;;;11.90;100.00
64192;BME280;50497;50.720;-2.084;2023-05-08T07:33:39;102949.38;;;11.95;100.00
64192;BME280;50497;50.720;-2.084;2023-05-08T07:36:05;102955.53;;;12.00;100.00
64192;BME280;50497;50.720;-2.084;2023-05-08T07:38:34;102920.94;;;11.82;100.00
64192;BME280;50497;50.720;-2.084;2023-05-08T07:41:00;102932.41;;;11.90;100.00
64192;BME280;50497;50.720;-2.084;2023-05-08T07:43:30;102950.25;;;11.94;100.00
64192;BME280;50497;50.720;-2.084;2023-05-08T07:45:56;102950.97;;;12.06;100.00
64192;BME280;50497;50.720;-2.084;2023-05-08T07:48:26;102898.09;;;11.59;100.00
64192;BME280;50497;50.720;-2.084;2023-05-08T07:50:55;102920.69;;;11.97;100.00
64192;BME280;50497;50.720;-2.084;2023-05-08T07:53:21;102907.38;;;11.93;100.00
64192;BME280;50497;50.720;-2.084;2023-05-08T07:55:46;102893.25;;;11.80;100.00
64192;BME280;50497;50.720;-2.084;2023-05-08T07:58:12;102883.41;;;11.82;100.00
64192;BME280;50497;50.720;-2.084;2023-05-08T08:00:38;102906.88;;;12.19;100.00
64192;BME280;50497;50.720;-2.084;2023-05-08T08:03:05;102906.19;;;12.08;100.00
64192;BME280;50497;50.720;-2.084;2023-05-08T08:05:30;102904.13;;;12.22;100.00
64192;BME280;50497;50.720;-2.084;2023-05-08T08:07:59;102904.22;;;12.17;100.00
64192;BME280;50497;50.720;-2.084;2023-05-08T08:10:25;102871.34;;;12.06;100.00
64192;BME280;50497;50.720;-2.084;2023-05-08T08:12:54;102857.88;;;12.09;100.00
64192;BME280;50497;50.720;-2.084;2023-05-08T08:15:19;102856.41;;;11.90;100.00
64192;BME280;50497;50.720;-2.084;2023-05-08T08:17:45;102844.00;;;11.86;100.00
64192;BME280;50497;50.720;-2.084;2023-05-08T08:20:11;102848.56;;;11.80;100.00
64192;BME280;50497;50.720;-2.084;2023-05-08T08:22:37;102842.13;;;11.92;100.00
64192;BME280;50497;50.720;-2.084;2023-05-08T08:25:06;102823.31;;;11.91;100.00
64192;BME280;50497;50.720;-2.084;2023-05-08T08:27:35;102831.09;;;12.06;100.00
64192;BME280;50497;50.720;-2.084;2023-05-08T08:30:01;102809.88;;;11.95;100.00
64192;BME280;50497;50.720;-2.084;2023-05-08T08:32:26;102783.88;;;11.97;100.00
64192;BME280;50497;50.720;-2.084;2023-05-08T08:34:52;102803.09;;;12.19;100.00
64192;BME280;50497;50.720;-2.084;2023-05-08T08:37:17;102766.75;;;12.03;100.00
64192;BME280;50497;50.720;-2.084;2023-05-08T08:39:43;102779.25;;;12.46;100.00
64192;BME280;50497;50.720;-2.084;2023-05-08T08:42:09;102752.78;;;12.29;100.00
64192;BME280;50497;50.720;-2.084;2023-05-08T08:44:36;102737.28;;;12.42;100.00
64192;BME280;50497;50.720;-2.084;2023-05-08T08:47:04;102701.66;;;12.35;100.00
64192;BME280;50497;50.720;-2.084;2023-05-08T08:49:31;102691.06;;;12.67;100.00
64192;BME280;50497;50.720;-2.084;2023-05-08T08:52:01;102661.72;;;12.57;100.00
64192;BME280;50497;50.720;-2.084;2023-05-08T08:54:29;102627.47;;;12.67;100.00
64192;BME280;50497;50.720;-2.084;2023-05-08T08:57:04;102598.78;;;12.69;100.00
64192;BME280;50497;50.720;-2.084;2023-05-08T08:59:34;102570.53;;;12.87;100.00
64192;BME280;50497;50.720;-2.084;2023-05-08T09:02:05;102540.16;;;12.85;100.00
64192;BME280;50497;50.720;-2.084;2023-05-08T09:04:33;102516.25;;;12.74;100.00
64192;BME280;50497;50.720;-2.084;2023-05-08T09:07:03;102454.53;;;12.42;100.00
64192;BME280;50497;50.720;-2.084;2023-05-08T09:09:31;102452.63;;;12.76;100.00
64192;BME280;50497;50.720;-2.084;2023-05-08T09:11:58;102409.28;;;12.59;100.00
64192;BME280;50497;50.720;-2.084;2023-05-08T09:14:28;102382.63;;;12.53;100.00
64192;BME280;50497;50.720;-2.084;2023-05-08T09:16:57;102358.09;;;12.65;100.00
64192;BME280;50497;50.720;-2.084;2023-05-08T09:19:22;102320.81;;;12.84;100.00
64192;BME280;50497;50.720;-2.084;2023-05-08T09:21:48;102304.53;;;12.89;100.00
64192;BME280;50497;50.720;-2.084;2023-05-08T09:24:13;102279.72;;;13.09;100.00
64192;BME280;50497;50.720;-2.084;2023-05-08T09:26:40;102256.44;;;13.08;100.00
64192;BME280;50497;50.720;-2.084;2023-05-08T09:29:09;102207.66;;;12.95;100.00
64192;BME280;50497;50.720;-2.084;2023-05-08T09:31:42;102220.44;;;13.40;100.00
64192;BME280;50497;50.720;-2.084;2023-05-08T09:34:09;102209.97;;;13.31;100.00
64192;BME280;50497;50.720;-2.084;2023-05-08T09:36:36;102203.06;;;13.24;100.00
64192;BME280;50497;50.720;-2.084;2023-05-08T09:39:11;102192.13;;;13.03;100.00
64192;BME280;50497;50.720;-2.084;2023-05-08T09:41:37;102190.38;;;12.75;100.00
64192;BME280;50497;50.720;-2.084;2023-05-08T09:44:04;102178.50;;;12.83;100.00
64192;BME280;50497;50.720;-2.084;2023-05-08T09:46:32;102184.81;;;12.82;100.00
64192;BME280;50497;50.720;-2.084;2023-05-08T09:49:00;102176.53;;;12.88;100.00
64192;BME280;50497;50.720;-2.084;2023-05-08T09:51:32;102174.59;;;12.91;100.00
64192;BME280;50497;50.720;-2.084;2023-05-08T09:53:58;102146.41;;;12.78;100.00
64192;BME280;50497;50.720;-2.084;2023-05-08T09:56:39;102162.59;;;13.03;100.00
64192;BME280;50497;50.720;-2.084;2023-05-08T09:59:22;102151.88;;;13.02;100.00
64192;BME280;50497;50.720;-2.084;2023-05-08T10:01:51;102160.22;;;13.19;100.00
64192;BME280;50497;50.720;-2.084;2023-05-08T10:04:17;102162.69;;;13.00;100.00
64192;BME280;50497;50.720;-2.084;2023-05-08T10:06:43;102147.88;;;13.13;100.00
64192;BME280;50497;50.720;-2.084;2023-05-08T10:09:19;102149.44;;;12.69;100.00
64192;BME280;50497;50.720;-2.084;2023-05-08T10:11:49;102160.16;;;12.96;100.00
64192;BME280;50497;50.720;-2.084;2023-05-08T10:14:22;102135.94;;;12.70;100.00
64192;BME280;50497;50.720;-2.084;2023-05-08T10:16:51;102164.50;;;12.73;100.00
64192;BME280;50497;50.720;-2.084;2023-05-08T10:19:18;102169.72;;;12.51;100.00
64192;BME280;50497;50.720;-2.084;2023-05-08T10:21:50;102168.44;;;12.34;100.00
64192;BME280;50497;50.720;-2.084;2023-05-08T10:24:31;102184.34;;;12.69;100.00
64192;BME280;50497;50.720;-2.084;2023-05-08T10:27:18;102193.81;;;12.52;100.00
64192;BME280;50497;50.720;-2.084;2023-05-08T10:29:55;102183.72;;;12.87;100.00
64192;BME280;50497;50.720;-2.084;2023-05-08T10:32:22;102195.75;;;12.75;100.00
64192;BME280;50497;50.720;-2.084;2023-05-08T10:34:51;102194.59;;;12.56;100.00
64192;BME280;50497;50.720;-2.084;2023-05-08T10:37:19;102196.00;;;12.68;100.00
64192;BME280;50497;50.720;-2.084;2023-05-08T10:39:46;102214.94;;;12.63;100.00
64192;BME280;50497;50.720;-2.084;2023-05-08T10:42:12;102222.84;;;12.68;100.00
64192;BME280;50497;50.720;-2.084;2023-05-08T10:44:39;102230.22;;;12.61;100.00
64192;BME280;50497;50.720;-2.084;2023-05-08T10:50:05;102259.94;;;12.55;100.00
64192;BME280;50497;50.720;-2.084;2023-05-08T10:52:44;102255.09;;;12.38;100.00
64192;BME280;50497;50.720;-2.084;2023-05-08T11:03:22;102350.13;;;12.62;100.00
64192;BME280;50497;50.720;-2.084;2023-05-08T11:05:54;102360.13;;;12.27;100.00
64192;BME280;50497;50.720;-2.084;2023-05-08T11:08:26;102378.25;;;12.50;100.00
64192;BME280;50497;50.720;-2.084;2023-05-08T11:13:31;102425.31;;;12.62;100.00
64192;BME280;50497;50.720;-2.084;2023-05-08T11:15:57;102391.25;;;12.33;100.00
64192;BME280;50497;50.720;-2.084;2023-05-08T11:18:23;102432.66;;;12.24;100.00
64192;BME280;50497;50.720;-2.084;2023-05-08T11:21:05;102434.53;;;12.20;100.00
64192;BME280;50497;50.720;-2.084;2023-05-08T11:23:38;102444.22;;;12.26;100.00
64192;BME280;50497;50.720;-2.084;2023-05-08T11:26:13;102473.19;;;12.46;100.00
64192;BME280;50497;50.720;-2.084;2023-05-08T11:28:54;102487.38;;;12.51;100.00
64192;BME280;50497;50.720;-2.084;2023-05-08T11:31:21;102510.06;;;12.39;100.00
64192;BME280;50497;50.720;-2.084;2023-05-08T11:33:50;102488.41;;;12.13;100.00
64192;BME280;50497;50.720;-2.084;2023-05-08T11:36:21;102525.28;;;12.39;100.00
64192;BME280;50497;50.720;-2.084;2023-05-08T11:39:05;102550.88;;;12.52;100.00
64192;BME280;50497;50.720;-2.084;2023-05-08T11:41:32;102552.28;;;12.67;100.00
64192;BME280;50497;50.720;-2.084;2023-05-08T11:46:41;102575.38;;;13.06;100.00
64192;BME280;50497;50.720;-2.084;2023-05-08T11:49:14;102584.91;;;13.18;100.00
64192;BME280;50497;50.720;-2.084;2023-05-08T11:51:46;102569.31;;;12.66;100.00
64192;BME280;50497;50.720;-2.084;2023-05-08T11:54:17;102577.66;;;12.90;100.00
64192;BME280;50497;50.720;-2.084;2023-05-08T11:56:47;102566.38;;;12.75;100.00
64192;BME280;50497;50.720;-2.084;2023-05-08T11:59:14;102601.00;;;12.86;100.00
64192;BME280;50497;50.720;-2.084;2023-05-08T12:01:40;102600.88;;;12.91;100.00
64192;BME280;50497;50.720;-2.084;2023-05-08T12:04:11;102589.22;;;12.92;100.00
64192;BME280;50497;50.720;-2.084;2023-05-08T12:06:38;102600.41;;;13.08;100.00
64192;BME280;50497;50.720;-2.084;2023-05-08T12:09:16;102615.22;;;13.23;100.00
64192;BME280;50497;50.720;-2.084;2023-05-08T12:11:43;102610.88;;;12.86;100.00
64192;BME280;50497;50.720;-2.084;2023-05-08T12:14:11;102616.28;;;13.17;100.00
64192;BME280;50497;50.720;-2.084;2023-05-08T12:16:38;102618.41;;;13.04;100.00
64192;BME280;50497;50.720;-2.084;2023-05-08T12:19:15;102595.84;;;13.11;100.00
64192;BME280;50497;50.720;-2.084;2023-05-08T12:21:47;102597.19;;;12.95;100.00
64192;BME280;50497;50.720;-2.084;2023-05-08T12:24:15;102590.72;;;13.02;100.00
64192;BME280;50497;50.720;-2.084;2023-05-08T12:26:47;102578.97;;;13.05;100.00
64192;BME280;50497;50.720;-2.084;2023-05-08T12:29:12;102588.50;;;13.18;100.00
64192;BME280;50497;50.720;-2.084;2023-05-08T12:31:38;102587.63;;;13.16;100.00
64192;BME280;50497;50.720;-2.084;2023-05-08T12:34:04;102578.03;;;13.07;100.00
64192;BME280;50497;50.720;-2.084;2023-05-08T12:36:37;102557.84;;;12.92;100.00
64192;BME280;50497;50.720;-2.084;2023-05-08T12:39:16;102572.19;;;13.23;100.00
64192;BME280;50497;50.720;-2.084;2023-05-08T12:41:45;102547.56;;;13.08;100.00
64192;BME280;50497;50.720;-2.084;2023-05-08T12:44:17;102561.78;;;13.12;100.00
64192;BME280;50497;50.720;-2.084;2023-05-08T12:46:49;102561.25;;;12.99;100.00
64192;BME280;50497;50.720;-2.084;2023-05-08T12:49:25;102553.50;;;12.88;100.00
64192;BME280;50497;50.720;-2.084;2023-05-08T12:51:51;102527.34;;;12.95;100.00
64192;BME280;50497;50.720;-2.084;2023-05-08T12:54:17;102560.63;;;13.21;100.00
64192;BME280;50497;50.720;-2.084;2023-05-08T12:56:43;102554.06;;;13.00;100.00
64192;BME280;50497;50.720;-2.084;2023-05-08T12:59:11;102571.94;;;13.01;100.00
64192;BME280;50497;50.720;-2.084;2023-05-08T13:01:37;102572.91;;;12.98;100.00
64192;BME280;50497;50.720;-2.084;2023-05-08T13:04:09;102588.94;;;13.01;100.00
64192;BME280;50497;50.720;-2.084;2023-05-08T13:06:43;102600.31;;;13.11;100.00
64192;BME280;50497;50.720;-2.084;2023-05-08T13:09:17;102605.50;;;13.19;100.00
64192;BME280;50497;50.720;-2.084;2023-05-08T13:11:43;102595.34;;;13.28;100.00
64192;BME280;50497;50.720;-2.084;2023-05-08T13:14:08;102570.00;;;13.06;100.00
64192;BME280;50497;50.720;-2.084;2023-05-08T13:16:44;102598.31;;;13.51;100.00
64192;BME280;50497;50.720;-2.084;2023-05-08T13:19:14;102573.47;;;13.42;100.00
64192;BME280;50497;50.720;-2.084;2023-05-08T13:21:40;102553.50;;;13.49;100.00
64192;BME280;50497;50.720;-2.084;2023-05-08T13:24:10;102568.56;;;13.57;100.00